sensor_id;sensor_type;location;lat;lon;timestamp;P1;durP1;ratioP1;P2;durP2;ratioP2
30247;SDS011;17063;50.892;4.702;2023-01-10T00:00:30;11.00;;;1.93;;
30247;SDS011;17063;50.892;4.702;2023-01-10T00:03:00;9.80;;;3.00;;
30247;SDS011;17063;50.892;4.702;2023-01-10T00:05:28;8.97;;;2.33;;
30247;SDS011;17063;50.892;4.702;2023-01-10T00:07:55;14.27;;;2.97;;
30247;SDS011;17063;50.892;4.702;2023-01-10T00:10:24;7.87;;;2.20;;
30247;SDS011;17063;50.892;4.702;2023-01-10T00:12:51;10.07;;;2.40;;
30247;SDS011;17063;50.892;4.702;2023-01-10T00:15:37;7.90;;;2.33;;
30247;SDS011;17063;50.892;4.702;2023-01-10T00:18:04;11.83;;;2.33;;
30247;SDS011;17063;50.892;4.702;2023-01-10T00:20:31;11.13;;;2.90;;
30247;SDS011;17063;50.892;4.702;2023-01-10T00:22:58;15.07;;;2.73;;
30247;SDS011;17063;50.892;4.702;2023-01-10T00:25:25;11.83;;;2.77;;
30247;SDS011;17063;50.892;4.702;2023-01-10T00:27:53;7.83;;;2.30;;
30247;SDS011;17063;50.892;4.702;2023-01-10T00:30:47;11.17;;;2.20;;
30247;SDS011;17063;50.892;4.702;2023-01-10T00:33:20;11.77;;;2.23;;
30247;SDS011;17063;50.892;4.702;2023-01-10T00:35:47;15.67;;;2.50;;
30247;SDS011;17063;50.892;4.702;2023-01-10T00:38:14;10.70;;;2.33;;
30247;SDS011;17063;50.892;4.702;2023-01-10T00:40:41;10.47;;;2.40;;
30247;SDS011;17063;50.892;4.702;2023-01-10T00:43:08;15.63;;;3.00;;
30247;SDS011;17063;50.892;4.702;2023-01-10T00:45:54;9.57;;;2.40;;
30247;SDS011;17063;50.892;4.702;2023-01-10T00:48:23;9.20;;;2.40;;
30247;SDS011;17063;50.892;4.702;2023-01-10T00:50:50;12.07;;;2.30;;
30247;SDS011;17063;50.892;4.702;2023-01-10T00:53:18;10.63;;;2.37;;
30247;SDS011;17063;50.892;4.702;2023-01-10T00:55:45;9.93;;;2.33;;
30247;SDS011;17063;50.892;4.702;2023-01-10T00:58:12;15.33;;;2.83;;
30247;SDS011;17063;50.892;4.702;2023-01-10T01:00:40;12.10;;;2.77;;
30247;SDS011;17063;50.892;4.702;2023-01-10T01:03:08;12.13;;;2.93;;
30247;SDS011;17063;50.892;4.702;2023-01-10T01:05:41;17.17;;;4.60;;
30247;SDS011;17063;50.892;4.702;2023-01-10T01:08:09;8.40;;;2.13;;
30247;SDS011;17063;50.892;4.702;2023-01-10T01:10:37;14.67;;;2.50;;
30247;SDS011;17063;50.892;4.702;2023-01-10T01:13:05;8.17;;;2.10;;
30247;SDS011;17063;50.892;4.702;2023-01-10T01:15:36;19.60;;;2.67;;
30247;SDS011;17063;50.892;4.702;2023-01-10T01:18:03;12.60;;;2.90;;
30247;SDS011;17063;50.892;4.702;2023-01-10T01:20:31;17.43;;;2.80;;
30247;SDS011;17063;50.892;4.702;2023-01-10T01:22:58;14.53;;;2.33;;
30247;SDS011;17063;50.892;4.702;2023-01-10T01:25:26;14.43;;;2.50;;
30247;SDS011;17063;50.892;4.702;2023-01-10T01:27:53;15.97;;;2.60;;
30247;SDS011;17063;50.892;4.702;2023-01-10T01:30:20;11.40;;;2.07;;
30247;SDS011;17063;50.892;4.702;2023-01-10T01:32:46;10.27;;;2.17;;
30247;SDS011;17063;50.892;4.702;2023-01-10T01:35:14;13.60;;;2.70;;
30247;SDS011;17063;50.892;4.702;2023-01-10T01:37:41;10.70;;;2.23;;
30247;SDS011;17063;50.892;4.702;2023-01-10T01:40:19;10.30;;;2.10;;
30247;SDS011;17063;50.892;4.702;2023-01-10T01:42:47;19.07;;;2.53;;
30247;SDS011;17063;50.892;4.702;2023-01-10T01:45:25;10.97;;;2.70;;
30247;SDS011;17063;50.892;4.702;2023-01-10T01:53:26;17.00;;;3.10;;
30247;SDS011;17063;50.892;4.702;2023-01-10T01:56:01;12.47;;;2.37;;
30247;SDS011;17063;50.892;4.702;2023-01-10T01:58:38;14.10;;;3.23;;
30247;SDS011;17063;50.892;4.702;2023-01-10T02:01:20;19.80;;;2.77;;
30247;SDS011;17063;50.892;4.702;2023-01-10T02:03:49;14.93;;;2.90;;
30247;SDS011;17063;50.892;4.702;2023-01-10T02:06:19;15.93;;;2.47;;
30247;SDS011;17063;50.892;4.702;2023-01-10T02:08:49;12.67;;;2.47;;
30247;SDS011;17063;50.892;4.702;2023-01-10T02:11:22;11.97;;;2.67;;
30247;SDS011;17063;50.892;4.702;2023-01-10T02:13:49;17.87;;;2.60;;
30247;SDS011;17063;50.892;4.702;2023-01-10T02:16:15;12.83;;;2.77;;
30247;SDS011;17063;50.892;4.702;2023-01-10T02:18:43;22.37;;;2.93;;
30247;SDS011;17063;50.892;4.702;2023-01-10T02:30:06;11.00;;;2.03;;
30247;SDS011;17063;50.892;4.702;2023-01-10T02:41:22;18.83;;;2.73;;
30247;SDS011;17063;50.892;4.702;2023-01-10T02:44:01;15.93;;;2.53;;
30247;SDS011;17063;50.892;4.702;2023-01-10T02:46:30;17.03;;;3.80;;
30247;SDS011;17063;50.892;4.702;2023-01-10T02:48:57;18.37;;;2.50;;
30247;SDS011;17063;50.892;4.702;2023-01-10T02:51:28;24.03;;;3.03;;
30247;SDS011;17063;50.892;4.702;2023-01-10T02:54:00;10.67;;;2.53;;
30247;SDS011;17063;50.892;4.702;2023-01-10T03:07:38;16.77;;;2.00;;
30247;SDS011;17063;50.892;4.702;2023-01-10T03:10:13;18.97;;;3.07;;
30247;SDS011;17063;50.892;4.702;2023-01-10T03:15:30;17.43;;;3.80;;
30247;SDS011;17063;50.892;4.702;2023-01-10T03:18:01;12.67;;;2.87;;
30247;SDS011;17063;50.892;4.702;2023-01-10T03:20:30;14.33;;;2.30;;
30247;SDS011;17063;50.892;4.702;2023-01-10T03:22:58;17.43;;;3.60;;
30247;SDS011;17063;50.892;4.702;2023-01-10T03:25:29;17.93;;;3.33;;
30247;SDS011;17063;50.892;4.702;2023-01-10T03:28:01;20.37;;;3.07;;
30247;SDS011;17063;50.892;4.702;2023-01-10T03:33:13;14.97;;;2.53;;
30247;SDS011;17063;50.892;4.702;2023-01-10T03:38:28;16.87;;;2.53;;
30247;SDS011;17063;50.892;4.702;2023-01-10T03:41:06;19.97;;;2.93;;
30247;SDS011;17063;50.892;4.702;2023-01-10T03:47:03;14.00;;;2.40;;
30247;SDS011;17063;50.892;4.702;2023-01-10T03:49:32;13.03;;;2.67;;
30247;SDS011;17063;50.892;4.702;2023-01-10T03:52:00;19.53;;;2.93;;
30247;SDS011;17063;50.892;4.702;2023-01-10T03:54:27;21.03;;;2.73;;
30247;SDS011;17063;50.892;4.702;2023-01-10T03:56:54;20.83;;;3.00;;
30247;SDS011;17063;50.892;4.702;2023-01-10T03:59:22;14.97;;;2.30;;
30247;SDS011;17063;50.892;4.702;2023-01-10T04:01:51;22.67;;;3.13;;
30247;SDS011;17063;50.892;4.702;2023-01-10T04:04:18;15.10;;;2.80;;
30247;SDS011;17063;50.892;4.702;2023-01-10T04:06:45;18.30;;;2.70;;
30247;SDS011;17063;50.892;4.702;2023-01-10T04:09:12;14.23;;;2.70;;
30247;SDS011;17063;50.892;4.702;2023-01-10T04:11:39;17.87;;;2.60;;
30247;SDS011;17063;50.892;4.702;2023-01-10T04:14:05;17.50;;;2.60;;
30247;SDS011;17063;50.892;4.702;2023-01-10T04:16:32;15.37;;;3.13;;
30247;SDS011;17063;50.892;4.702;2023-01-10T04:18:59;15.23;;;2.40;;
30247;SDS011;17063;50.892;4.702;2023-01-10T04:21:26;16.43;;;2.87;;
30247;SDS011;17063;50.892;4.702;2023-01-10T04:23:53;16.13;;;2.77;;
30247;SDS011;17063;50.892;4.702;2023-01-10T04:26:19;29.67;;;3.00;;
30247;SDS011;17063;50.892;4.702;2023-01-10T04:28:46;19.43;;;2.80;;
30247;SDS011;17063;50.892;4.702;2023-01-10T04:31:13;16.17;;;2.80;;
30247;SDS011;17063;50.892;4.702;2023-01-10T04:33:41;12.20;;;2.30;;
30247;SDS011;17063;50.892;4.702;2023-01-10T04:36:08;10.80;;;2.37;;
30247;SDS011;17063;50.892;4.702;2023-01-10T04:38:35;15.63;;;2.60;;
30247;SDS011;17063;50.892;4.702;2023-01-10T04:41:02;14.70;;;3.20;;
30247;SDS011;17063;50.892;4.702;2023-01-10T04:43:31;13.87;;;2.67;;
30247;SDS011;17063;50.892;4.702;2023-01-10T04:45:58;12.97;;;2.50;;
30247;SDS011;17063;50.892;4.702;2023-01-10T04:48:25;14.27;;;2.50;;
30247;SDS011;17063;50.892;4.702;2023-01-10T04:50:52;17.63;;;3.00;;
30247;SDS011;17063;50.892;4.702;2023-01-10T04:53:19;18.07;;;2.23;;
30247;SDS011;17063;50.892;4.702;2023-01-10T04:55:47;20.30;;;3.03;;
30247;SDS011;17063;50.892;4.702;2023-01-10T04:58:14;17.13;;;2.50;;
30247;SDS011;17063;50.892;4.702;2023-01-10T05:00:41;18.73;;;2.80;;
30247;SDS011;17063;50.892;4.702;2023-01-10T05:03:08;12.20;;;3.03;;
30247;SDS011;17063;50.892;4.702;2023-01-10T05:05:34;20.30;;;3.20;;
30247;SDS011;17063;50.892;4.702;2023-01-10T05:08:01;13.87;;;3.30;;
30247;SDS011;17063;50.892;4.702;2023-01-10T05:10:28;10.40;;;2.70;;
30247;SDS011;17063;50.892;4.702;2023-01-10T05:12:55;25.03;;;3.43;;
30247;SDS011;17063;50.892;4.702;2023-01-10T05:15:22;10.07;;;2.20;;
30247;SDS011;17063;50.892;4.702;2023-01-10T05:17:49;18.70;;;3.40;;
30247;SDS011;17063;50.892;4.702;2023-01-10T05:20:16;20.13;;;3.00;;
30247;SDS011;17063;50.892;4.702;2023-01-10T05:22:43;20.03;;;2.80;;
30247;SDS011;17063;50.892;4.702;2023-01-10T05:25:11;12.20;;;2.77;;
30247;SDS011;17063;50.892;4.702;2023-01-10T05:27:39;15.00;;;2.90;;
30247;SDS011;17063;50.892;4.702;2023-01-10T05:30:09;12.40;;;2.63;;
30247;SDS011;17063;50.892;4.702;2023-01-10T05:32:36;13.63;;;2.60;;
30247;SDS011;17063;50.892;4.702;2023-01-10T05:35:03;16.87;;;2.27;;
30247;SDS011;17063;50.892;4.702;2023-01-10T05:37:30;15.67;;;2.13;;
30247;SDS011;17063;50.892;4.702;2023-01-10T05:39:57;18.13;;;3.20;;
30247;SDS011;17063;50.892;4.702;2023-01-10T05:42:24;24.57;;;2.60;;
30247;SDS011;17063;50.892;4.702;2023-01-10T05:44:51;22.70;;;2.97;;
30247;SDS011;17063;50.892;4.702;2023-01-10T05:47:18;18.87;;;2.70;;
30247;SDS011;17063;50.892;4.702;2023-01-10T05:49:44;24.27;;;3.50;;
30247;SDS011;17063;50.892;4.702;2023-01-10T05:52:11;28.87;;;3.07;;
30247;SDS011;17063;50.892;4.702;2023-01-10T05:54:38;24.70;;;3.20;;
30247;SDS011;17063;50.892;4.702;2023-01-10T05:57:06;11.50;;;2.47;;
30247;SDS011;17063;50.892;4.702;2023-01-10T05:59:33;17.00;;;2.60;;
30247;SDS011;17063;50.892;4.702;2023-01-10T06:02:00;21.63;;;3.17;;
30247;SDS011;17063;50.892;4.702;2023-01-10T06:04:27;15.07;;;3.27;;
30247;SDS011;17063;50.892;4.702;2023-01-10T06:06:53;16.73;;;2.83;;
30247;SDS011;17063;50.892;4.702;2023-01-10T06:09:20;15.97;;;3.03;;
30247;SDS011;17063;50.892;4.702;2023-01-10T06:11:47;20.83;;;3.40;;
30247;SDS011;17063;50.892;4.702;2023-01-10T06:14:14;19.53;;;2.70;;
30247;SDS011;17063;50.892;4.702;2023-01-10T06:16:45;14.13;;;2.10;;
30247;SDS011;17063;50.892;4.702;2023-01-10T06:19:12;19.67;;;2.90;;
30247;SDS011;17063;50.892;4.702;2023-01-10T06:21:39;20.40;;;3.40;;
30247;SDS011;17063;50.892;4.702;2023-01-10T06:24:06;18.57;;;2.73;;
30247;SDS011;17063;50.892;4.702;2023-01-10T06:26:34;18.03;;;3.03;;
30247;SDS011;17063;50.892;4.702;2023-01-10T06:29:00;22.20;;;2.63;;
30247;SDS011;17063;50.892;4.702;2023-01-10T06:31:27;20.80;;;3.10;;
30247;SDS011;17063;50.892;4.702;2023-01-10T06:33:54;17.00;;;2.37;;
30247;SDS011;17063;50.892;4.702;2023-01-10T06:36:21;17.10;;;2.67;;
30247;SDS011;17063;50.892;4.702;2023-01-10T06:38:48;15.33;;;2.50;;
30247;SDS011;17063;50.892;4.702;2023-01-10T06:41:15;24.03;;;3.60;;
30247;SDS011;17063;50.892;4.702;2023-01-10T06:43:42;16.55;;;2.33;;
30247;SDS011;17063;50.892;4.702;2023-01-10T06:46:11;20.60;;;2.73;;
30247;SDS011;17063;50.892;4.702;2023-01-10T06:48:39;26.10;;;3.10;;
30247;SDS011;17063;50.892;4.702;2023-01-10T06:51:06;16.93;;;2.50;;
30247;SDS011;17063;50.892;4.702;2023-01-10T06:53:32;16.57;;;2.37;;
30247;SDS011;17063;50.892;4.702;2023-01-10T06:55:59;11.87;;;2.10;;
30247;SDS011;17063;50.892;4.702;2023-01-10T06:58:27;18.77;;;2.73;;
30247;SDS011;17063;50.892;4.702;2023-01-10T07:00:57;13.67;;;2.40;;
30247;SDS011;17063;50.892;4.702;2023-01-10T07:03:24;19.33;;;2.83;;
30247;SDS011;17063;50.892;4.702;2023-01-10T07:05:51;22.73;;;3.70;;
30247;SDS011;17063;50.892;4.702;2023-01-10T07:08:18;11.90;;;2.33;;
30247;SDS011;17063;50.892;4.702;2023-01-10T07:10:45;13.77;;;2.67;;
30247;SDS011;17063;50.892;4.702;2023-01-10T07:13:12;17.57;;;2.57;;
30247;SDS011;17063;50.892;4.702;2023-01-10T07:15:38;12.60;;;2.23;;
30247;SDS011;17063;50.892;4.702;2023-01-10T07:18:05;16.70;;;2.67;;
30247;SDS011;17063;50.892;4.702;2023-01-10T07:20:32;22.90;;;3.00;;
30247;SDS011;17063;50.892;4.702;2023-01-10T07:22:59;12.23;;;2.65;;
30247;SDS011;17063;50.892;4.702;2023-01-10T07:25:27;12.07;;;2.50;;
30247;SDS011;17063;50.892;4.702;2023-01-10T07:27:55;18.43;;;3.10;;
30247;SDS011;17063;50.892;4.702;2023-01-10T07:30:22;21.30;;;3.20;;
30247;SDS011;17063;50.892;4.702;2023-01-10T07:32:57;14.23;;;2.33;;
30247;SDS011;17063;50.892;4.702;2023-01-10T07:35:24;16.43;;;2.63;;
30247;SDS011;17063;50.892;4.702;2023-01-10T07:37:51;20.67;;;3.20;;
30247;SDS011;17063;50.892;4.702;2023-01-10T07:40:18;20.17;;;4.37;;
30247;SDS011;17063;50.892;4.702;2023-01-10T07:42:45;19.73;;;3.00;;
30247;SDS011;17063;50.892;4.702;2023-01-10T07:45:11;12.93;;;2.03;;
30247;SDS011;17063;50.892;4.702;2023-01-10T07:47:38;19.57;;;2.83;;
30247;SDS011;17063;50.892;4.702;2023-01-10T07:50:05;16.93;;;2.57;;
30247;SDS011;17063;50.892;4.702;2023-01-10T07:52:33;10.23;;;2.80;;
30247;SDS011;17063;50.892;4.702;2023-01-10T07:55:00;20.70;;;2.80;;
30247;SDS011;17063;50.892;4.702;2023-01-10T07:57:26;17.50;;;3.00;;
30247;SDS011;17063;50.892;4.702;2023-01-10T07:59:53;13.40;;;2.80;;
30247;SDS011;17063;50.892;4.702;2023-01-10T08:02:20;15.23;;;2.80;;
30247;SDS011;17063;50.892;4.702;2023-01-10T08:04:47;18.03;;;3.00;;
30247;SDS011;17063;50.892;4.702;2023-01-10T08:07:14;13.03;;;2.70;;
30247;SDS011;17063;50.892;4.702;2023-01-10T08:09:40;18.80;;;3.27;;
30247;SDS011;17063;50.892;4.702;2023-01-10T08:12:07;12.97;;;2.73;;
30247;SDS011;17063;50.892;4.702;2023-01-10T08:14:34;15.40;;;2.77;;
30247;SDS011;17063;50.892;4.702;2023-01-10T08:17:01;24.97;;;3.47;;
30247;SDS011;17063;50.892;4.702;2023-01-10T08:19:27;14.17;;;3.00;;
30247;SDS011;17063;50.892;4.702;2023-01-10T08:21:54;17.53;;;2.87;;
30247;SDS011;17063;50.892;4.702;2023-01-10T08:24:21;16.37;;;2.80;;
30247;SDS011;17063;50.892;4.702;2023-01-10T08:26:48;13.50;;;2.87;;
30247;SDS011;17063;50.892;4.702;2023-01-10T08:29:14;18.53;;;2.57;;
30247;SDS011;17063;50.892;4.702;2023-01-10T08:31:41;11.90;;;2.20;;
30247;SDS011;17063;50.892;4.702;2023-01-10T08:34:09;15.50;;;2.77;;
30247;SDS011;17063;50.892;4.702;2023-01-10T08:36:38;13.33;;;3.20;;
30247;SDS011;17063;50.892;4.702;2023-01-10T08:39:05;15.63;;;2.63;;
30247;SDS011;17063;50.892;4.702;2023-01-10T08:41:32;11.47;;;2.43;;
30247;SDS011;17063;50.892;4.702;2023-01-10T08:43:59;31.43;;;3.60;;
30247;SDS011;17063;50.892;4.702;2023-01-10T08:46:26;20.70;;;3.33;;
30247;SDS011;17063;50.892;4.702;2023-01-10T08:48:53;22.13;;;3.20;;
30247;SDS011;17063;50.892;4.702;2023-01-10T08:51:20;16.07;;;3.00;;
30247;SDS011;17063;50.892;4.702;2023-01-10T08:53:47;18.67;;;3.17;;
30247;SDS011;17063;50.892;4.702;2023-01-10T08:56:14;20.27;;;2.43;;
30247;SDS011;17063;50.892;4.702;2023-01-10T08:58:40;13.87;;;3.03;;
30247;SDS011;17063;50.892;4.702;2023-01-10T09:01:07;20.00;;;3.43;;
30247;SDS011;17063;50.892;4.702;2023-01-10T09:03:34;12.93;;;3.17;;
30247;SDS011;17063;50.892;4.702;2023-01-10T09:06:01;16.43;;;3.17;;
30247;SDS011;17063;50.892;4.702;2023-01-10T09:08:28;17.33;;;3.27;;
30247;SDS011;17063;50.892;4.702;2023-01-10T09:10:59;27.60;;;3.70;;
30247;SDS011;17063;50.892;4.702;2023-01-10T09:13:27;12.80;;;2.70;;
30247;SDS011;17063;50.892;4.702;2023-01-10T09:15:54;10.33;;;3.23;;
30247;SDS011;17063;50.892;4.702;2023-01-10T09:18:22;20.77;;;3.87;;
30247;SDS011;17063;50.892;4.702;2023-01-10T09:20:50;19.40;;;3.27;;
30247;SDS011;17063;50.892;4.702;2023-01-10T09:23:17;13.17;;;2.70;;
30247;SDS011;17063;50.892;4.702;2023-01-10T09:25:46;13.47;;;2.90;;
30247;SDS011;17063;50.892;4.702;2023-01-10T09:28:14;19.83;;;3.07;;
30247;SDS011;17063;50.892;4.702;2023-01-10T09:30:42;22.63;;;2.60;;
30247;SDS011;17063;50.892;4.702;2023-01-10T09:33:10;11.27;;;2.60;;
30247;SDS011;17063;50.892;4.702;2023-01-10T09:35:38;24.10;;;3.10;;
30247;SDS011;17063;50.892;4.702;2023-01-10T09:38:06;23.10;;;4.10;;
30247;SDS011;17063;50.892;4.702;2023-01-10T09:40:52;20.23;;;3.20;;
30247;SDS011;17063;50.892;4.702;2023-01-10T09:46:07;14.60;;;2.57;;
30247;SDS011;17063;50.892;4.702;2023-01-10T09:53:50;19.30;;;2.70;;
30247;SDS011;17063;50.892;4.702;2023-01-10T09:56:21;17.10;;;2.90;;
30247;SDS011;17063;50.892;4.702;2023-01-10T09:58:48;12.70;;;2.83;;
30247;SDS011;17063;50.892;4.702;2023-01-10T10:01:20;11.73;;;2.83;;
30247;SDS011;17063;50.892;4.702;2023-01-10T10:04:15;26.93;;;2.83;;
30247;SDS011;17063;50.892;4.702;2023-01-10T10:06:50;15.03;;;2.87;;
30247;SDS011;17063;50.892;4.702;2023-01-10T10:09:19;23.60;;;3.00;;
30247;SDS011;17063;50.892;4.702;2023-01-10T10:14:54;18.27;;;2.47;;
30247;SDS011;17063;50.892;4.702;2023-01-10T10:36:29;15.67;;;2.87;;
30247;SDS011;17063;50.892;4.702;2023-01-10T10:39:38;19.37;;;2.97;;
30247;SDS011;17063;50.892;4.702;2023-01-10T10:42:13;12.67;;;3.20;;
30247;SDS011;17063;50.892;4.702;2023-01-10T10:44:44;16.47;;;2.60;;
30247;SDS011;17063;50.892;4.702;2023-01-10T10:47:14;17.10;;;3.10;;
30247;SDS011;17063;50.892;4.702;2023-01-10T10:49:48;29.20;;;3.20;;
30247;SDS011;17063;50.892;4.702;2023-01-10T10:52:26;21.10;;;2.90;;
30247;SDS011;17063;50.892;4.702;2023-01-10T10:54:57;21.27;;;3.33;;
30247;SDS011;17063;50.892;4.702;2023-01-10T10:57:25;21.37;;;3.10;;
30247;SDS011;17063;50.892;4.702;2023-01-10T10:59:53;19.10;;;3.43;;
30247;SDS011;17063;50.892;4.702;2023-01-10T11:02:26;16.07;;;3.43;;
30247;SDS011;17063;50.892;4.702;2023-01-10T11:04:58;20.93;;;3.10;;
30247;SDS011;17063;50.892;4.702;2023-01-10T11:07:28;24.17;;;3.93;;
30247;SDS011;17063;50.892;4.702;2023-01-10T11:10:01;20.97;;;3.20;;
30247;SDS011;17063;50.892;4.702;2023-01-10T11:12:43;17.13;;;3.27;;
30247;SDS011;17063;50.892;4.702;2023-01-10T11:18:11;13.33;;;3.00;;
30247;SDS011;17063;50.892;4.702;2023-01-10T11:26:09;21.27;;;3.47;;
30247;SDS011;17063;50.892;4.702;2023-01-10T11:29:02;22.77;;;3.33;;
30247;SDS011;17063;50.892;4.702;2023-01-10T11:31:50;17.00;;;4.03;;
30247;SDS011;17063;50.892;4.702;2023-01-10T11:34:30;21.23;;;3.77;;
30247;SDS011;17063;50.892;4.702;2023-01-10T11:37:00;21.43;;;3.50;;
30247;SDS011;17063;50.892;4.702;2023-01-10T11:39:44;20.60;;;3.37;;
30247;SDS011;17063;50.892;4.702;2023-01-10T11:44:50;20.43;;;3.17;;
30247;SDS011;17063;50.892;4.702;2023-01-10T11:47:17;14.17;;;2.93;;
30247;SDS011;17063;50.892;4.702;2023-01-10T11:49:46;17.37;;;3.53;;
30247;SDS011;17063;50.892;4.702;2023-01-10T11:54:53;15.83;;;3.27;;
30247;SDS011;17063;50.892;4.702;2023-01-10T11:57:24;17.63;;;2.87;;
30247;SDS011;17063;50.892;4.702;2023-01-10T12:00:14;11.73;;;3.30;;
30247;SDS011;17063;50.892;4.702;2023-01-10T12:02:44;24.20;;;3.73;;
30247;SDS011;17063;50.892;4.702;2023-01-10T12:05:21;24.43;;;3.17;;
30247;SDS011;17063;50.892;4.702;2023-01-10T12:07:58;11.60;;;2.87;;
30247;SDS011;17063;50.892;4.702;2023-01-10T12:10:31;14.00;;;3.10;;
30247;SDS011;17063;50.892;4.702;2023-01-10T12:13:06;18.67;;;3.57;;
30247;SDS011;17063;50.892;4.702;2023-01-10T12:15:42;20.93;;;3.13;;
30247;SDS011;17063;50.892;4.702;2023-01-10T12:18:09;17.80;;;3.27;;
30247;SDS011;17063;50.892;4.702;2023-01-10T12:20:47;24.80;;;3.07;;
30247;SDS011;17063;50.892;4.702;2023-01-10T12:23:16;20.10;;;3.30;;
30247;SDS011;17063;50.892;4.702;2023-01-10T12:25:44;14.43;;;2.93;;
30247;SDS011;17063;50.892;4.702;2023-01-10T12:28:25;12.77;;;3.00;;
30247;SDS011;17063;50.892;4.702;2023-01-10T12:30:55;7.97;;;2.50;;
30247;SDS011;17063;50.892;4.702;2023-01-10T12:33:32;24.57;;;2.90;;
30247;SDS011;17063;50.892;4.702;2023-01-10T12:38:37;17.87;;;3.17;;
30247;SDS011;17063;50.892;4.702;2023-01-10T12:44:23;17.43;;;3.10;;
30247;SDS011;17063;50.892;4.702;2023-01-10T12:46:57;25.13;;;2.97;;
30247;SDS011;17063;50.892;4.702;2023-01-10T12:49:37;17.73;;;2.63;;
30247;SDS011;17063;50.892;4.702;2023-01-10T12:52:15;20.97;;;4.63;;
30247;SDS011;17063;50.892;4.702;2023-01-10T12:54:48;15.50;;;3.23;;
30247;SDS011;17063;50.892;4.702;2023-01-10T12:57:59;16.83;;;3.70;;
30247;SDS011;17063;50.892;4.702;2023-01-10T13:00:06;12.90;;;3.00;;
30247;SDS011;17063;50.892;4.702;2023-01-10T13:02:52;18.30;;;2.93;;
30247;SDS011;17063;50.892;4.702;2023-01-10T13:05:23;15.80;;;2.87;;
30247;SDS011;17063;50.892;4.702;2023-01-10T13:07:53;17.20;;;3.47;;
30247;SDS011;17063;50.892;4.702;2023-01-10T13:10:24;14.30;;;2.60;;
30247;SDS011;17063;50.892;4.702;2023-01-10T13:12:54;19.13;;;2.87;;
30247;SDS011;17063;50.892;4.702;2023-01-10T13:16:11;14.43;;;2.37;;
30247;SDS011;17063;50.892;4.702;2023-01-10T13:21:35;16.43;;;2.97;;
30247;SDS011;17063;50.892;4.702;2023-01-10T13:24:04;11.23;;;3.07;;
30247;SDS011;17063;50.892;4.702;2023-01-10T13:29:25;24.77;;;2.93;;
30247;SDS011;17063;50.892;4.702;2023-01-10T13:31:56;17.43;;;3.07;;
30247;SDS011;17063;50.892;4.702;2023-01-10T13:34:25;14.53;;;2.70;;
30247;SDS011;17063;50.892;4.702;2023-01-10T13:36:59;20.13;;;3.10;;
30247;SDS011;17063;50.892;4.702;2023-01-10T13:39:30;10.13;;;2.33;;
30247;SDS011;17063;50.892;4.702;2023-01-10T13:42:25;23.70;;;3.20;;
30247;SDS011;17063;50.892;4.702;2023-01-10T13:52:49;24.33;;;2.83;;
30247;SDS011;17063;50.892;4.702;2023-01-10T13:55:24;12.90;;;3.10;;
30247;SDS011;17063;50.892;4.702;2023-01-10T13:58:41;20.97;;;3.23;;
30247;SDS011;17063;50.892;4.702;2023-01-10T14:06:14;11.87;;;2.40;;
30247;SDS011;17063;50.892;4.702;2023-01-10T14:08:55;17.73;;;2.83;;
30247;SDS011;17063;50.892;4.702;2023-01-10T14:14:29;19.93;;;2.40;;
30247;SDS011;17063;50.892;4.702;2023-01-10T14:19:41;9.90;;;2.37;;
30247;SDS011;17063;50.892;4.702;2023-01-10T14:24:57;11.57;;;2.67;;
30247;SDS011;17063;50.892;4.702;2023-01-10T14:27:26;20.93;;;2.67;;
30247;SDS011;17063;50.892;4.702;2023-01-10T14:30:03;24.00;;;4.23;;
30247;SDS011;17063;50.892;4.702;2023-01-10T14:35:02;12.37;;;2.40;;
30247;SDS011;17063;50.892;4.702;2023-01-10T14:37:32;13.17;;;2.33;;
30247;SDS011;17063;50.892;4.702;2023-01-10T14:40:04;7.40;;;1.70;;
30247;SDS011;17063;50.892;4.702;2023-01-10T14:42:36;10.43;;;1.93;;
30247;SDS011;17063;50.892;4.702;2023-01-10T14:45:25;13.17;;;2.03;;
30247;SDS011;17063;50.892;4.702;2023-01-10T14:47:52;6.00;;;1.80;;
30247;SDS011;17063;50.892;4.702;2023-01-10T14:50:27;7.43;;;2.00;;
30247;SDS011;17063;50.892;4.702;2023-01-10T14:52:58;6.87;;;1.80;;
30247;SDS011;17063;50.892;4.702;2023-01-10T14:55:25;9.67;;;1.87;;
30247;SDS011;17063;50.892;4.702;2023-01-10T14:57:57;3.87;;;1.47;;
30247;SDS011;17063;50.892;4.702;2023-01-10T15:00:30;8.27;;;2.07;;
30247;SDS011;17063;50.892;4.702;2023-01-10T15:02:59;9.10;;;1.37;;
30247;SDS011;17063;50.892;4.702;2023-01-10T15:05:36;7.80;;;1.47;;
30247;SDS011;17063;50.892;4.702;2023-01-10T15:08:27;5.13;;;1.33;;
30247;SDS011;17063;50.892;4.702;2023-01-10T15:11:03;5.23;;;1.10;;
30247;SDS011;17063;50.892;4.702;2023-01-10T15:13:33;5.47;;;1.30;;
30247;SDS011;17063;50.892;4.702;2023-01-10T15:16:02;4.43;;;1.30;;
30247;SDS011;17063;50.892;4.702;2023-01-10T15:18:36;2.53;;;1.20;;
30247;SDS011;17063;50.892;4.702;2023-01-10T15:21:05;4.63;;;1.00;;
30247;SDS011;17063;50.892;4.702;2023-01-10T15:23:36;2.20;;;1.07;;
30247;SDS011;17063;50.892;4.702;2023-01-10T15:26:06;4.53;;;1.30;;
30247;SDS011;17063;50.892;4.702;2023-01-10T15:28:36;6.70;;;1.20;;
30247;SDS011;17063;50.892;4.702;2023-01-10T15:31:03;2.03;;;1.10;;
30247;SDS011;17063;50.892;4.702;2023-01-10T15:33:31;3.50;;;1.47;;
30247;SDS011;17063;50.892;4.702;2023-01-10T15:36:04;3.97;;;1.10;;
30247;SDS011;17063;50.892;4.702;2023-01-10T15:38:34;2.83;;;1.00;;
30247;SDS011;17063;50.892;4.702;2023-01-10T15:41:04;2.23;;;0.70;;
30247;SDS011;17063;50.892;4.702;2023-01-10T15:43:32;2.47;;;1.00;;
30247;SDS011;17063;50.892;4.702;2023-01-10T15:46:01;3.27;;;1.23;;
30247;SDS011;17063;50.892;4.702;2023-01-10T15:48:31;8.43;;;1.43;;
30247;SDS011;17063;50.892;4.702;2023-01-10T15:51:46;2.47;;;0.73;;
30247;SDS011;17063;50.892;4.702;2023-01-10T15:56:47;3.20;;;0.70;;
30247;SDS011;17063;50.892;4.702;2023-01-10T15:59:28;5.90;;;1.23;;
30247;SDS011;17063;50.892;4.702;2023-01-10T16:04:38;0.93;;;0.60;;
30247;SDS011;17063;50.892;4.702;2023-01-10T16:10:00;0.67;;;0.50;;
30247;SDS011;17063;50.892;4.702;2023-01-10T16:12:35;2.17;;;0.70;;
30247;SDS011;17063;50.892;4.702;2023-01-10T16:15:22;0.60;;;0.60;;
30247;SDS011;17063;50.892;4.702;2023-01-10T16:17:53;0.60;;;0.60;;
30247;SDS011;17063;50.892;4.702;2023-01-10T16:20:21;1.50;;;0.60;;
30247;SDS011;17063;50.892;4.702;2023-01-10T16:22:57;0.60;;;0.57;;
30247;SDS011;17063;50.892;4.702;2023-01-10T16:25:33;0.80;;;0.50;;
30247;SDS011;17063;50.892;4.702;2023-01-10T16:28:01;1.50;;;0.50;;
30247;SDS011;17063;50.892;4.702;2023-01-10T16:30:29;0.50;;;0.50;;
30247;SDS011;17063;50.892;4.702;2023-01-10T16:32:59;0.83;;;0.60;;
30247;SDS011;17063;50.892;4.702;2023-01-10T16:35:26;0.70;;;0.53;;
30247;SDS011;17063;50.892;4.702;2023-01-10T16:37:55;3.67;;;0.80;;
30247;SDS011;17063;50.892;4.702;2023-01-10T16:40:27;0.80;;;0.60;;
30247;SDS011;17063;50.892;4.702;2023-01-10T16:43:01;0.80;;;0.57;;
30247;SDS011;17063;50.892;4.702;2023-01-10T16:48:10;0.50;;;0.50;;
30247;SDS011;17063;50.892;4.702;2023-01-10T16:50:38;0.50;;;0.50;;
30247;SDS011;17063;50.892;4.702;2023-01-10T16:53:08;0.73;;;0.50;;
30247;SDS011;17063;50.892;4.702;2023-01-10T16:55:39;0.97;;;0.57;;
30247;SDS011;17063;50.892;4.702;2023-01-10T16:58:07;0.63;;;0.60;;
30247;SDS011;17063;50.892;4.702;2023-01-10T17:00:35;0.57;;;0.57;;
30247;SDS011;17063;50.892;4.702;2023-01-10T17:03:04;1.73;;;0.40;;
30247;SDS011;17063;50.892;4.702;2023-01-10T17:05:36;0.47;;;0.40;;
30247;SDS011;17063;50.892;4.702;2023-01-10T17:08:04;0.87;;;0.70;;
30247;SDS011;17063;50.892;4.702;2023-01-10T17:10:31;0.60;;;0.60;;